Time;durP1;ratioP1;P1;durP2;ratioP2;P2;SDS_P1;SDS_P2;PMS_P1;PMS_P2;Temp;Humidity;BMP_temperature;BMP_pressure;BME280_temperature;BME280_humidity;BME280_pressure;Samples;Min_cycle;Max_cycle;Signal;HPM_P1;HPM_P2
2022/08/10 00:00:19;;;;;;;5.33;2.63;;;;;;;;;;5017099;28;20188;-68
2022/08/10 00:02:46;;;;;;;4.37;2.40;;;;;;;;;;5015786;28;20176;-68
2022/08/10 00:05:11;;;;;;;2.20;2.00;;;;;;;;;;5017446;28;20184;-68
2022/08/10 00:07:37;;;;;;;4.40;2.17;;;;;;;;;;5015541;28;20196;-68
2022/08/10 00:10:04;;;;;;;3.00;2.40;;;;;;;;;;5017110;28;20186;-68
2022/08/10 00:12:30;;;;;;;4.63;2.40;;;;;;;;;;5016725;28;20212;-68
2022/08/10 00:14:56;;;;;;;4.63;2.50;;;;;;;;;;5016833;28;20258;-68
2022/08/10 00:17:22;;;;;;;4.63;2.87;;;;;;;;;;5016762;28;20262;-68
2022/08/10 00:19:48;;;;;;;3.77;2.50;;;;;;;;;;5017063;28;20576;-68
2022/08/10 00:22:14;;;;;;;2.77;2.53;;;;;;;;;;5015249;28;20635;-66
2022/08/10 00:24:40;;;;;;;2.97;2.60;;;;;;;;;;5016415;28;20191;-68
2022/08/10 00:27:05;;;;;;;7.10;2.70;;;;;;;;;;5016583;28;20576;-67
2022/08/10 00:29:32;;;;;;;4.10;2.20;;;;;;;;;;5015318;28;20607;-68
2022/08/10 00:31:58;;;;;;;2.77;2.30;;;;;;;;;;5016399;28;20770;-68
2022/08/10 00:34:24;;;;;;;5.50;2.60;;;;;;;;;;5016749;28;20262;-68
2022/08/10 00:36:49;;;;;;;3.00;2.33;;;;;;;;;;5016179;28;20196;-68
2022/08/10 00:39:15;;;;;;;6.07;2.97;;;;;;;;;;5016967;28;20541;-68
2022/08/10 00:41:41;;;;;;;3.00;2.30;;;;;;;;;;5016444;28;20203;-68
2022/08/10 00:44:07;;;;;;;2.67;2.20;;;;;;;;;;5016344;28;20596;-68
2022/08/10 00:46:33;;;;;;;7.80;2.70;;;;;;;;;;5016123;28;20278;-68
2022/08/10 00:48:59;;;;;;;5.77;2.63;;;;;;;;;;5016386;28;20238;-68
2022/08/10 00:51:25;;;;;;;2.93;2.63;;;;;;;;;;5016070;28;20199;-68
2022/08/10 00:53:51;;;;;;;4.13;2.50;;;;;;;;;;5014908;28;20210;-68
2022/08/10 00:56:17;;;;;;;5.77;2.73;;;;;;;;;;5015144;28;20552;-69
2022/08/10 00:58:43;;;;;;;3.00;2.53;;;;;;;;;;5016408;28;20238;-66
2022/08/10 01:01:09;;;;;;;2.93;2.40;;;;;;;;;;5015967;28;20717;-69
2022/08/10 01:03:35;;;;;;;2.93;2.50;;;;;;;;;;5022542;28;20199;-68
2022/08/10 01:06:05;;;;;;;3.10;2.57;;;;;;;;;;5017019;28;20183;-68
2022/08/10 01:08:34;;;;;;;3.60;2.50;;;;;;;;;;5016661;28;20224;-67
2022/08/10 01:11:10;;;;;;;3.87;2.60;;;;;;;;;;5016098;28;20255;-66
2022/08/10 01:13:39;;;;;;;4.30;2.50;;;;;;;;;;5016246;28;20263;-67
2022/08/10 01:16:14;;;;;;;4.57;2.80;;;;;;;;;;5015951;28;20222;-67
2022/08/10 01:18:43;;;;;;;3.80;2.70;;;;;;;;;;5015677;28;20306;-67
2022/08/10 01:21:18;;;;;;;3.37;2.50;;;;;;;;;;5014716;28;20207;-67
2022/08/10 01:23:52;;;;;;;4.10;2.90;;;;;;;;;;5016082;28;20678;-67
2022/08/10 01:26:29;;;;;;;5.53;2.90;;;;;;;;;;5015878;28;20222;-67
2022/08/10 01:29:18;;;;;;;4.40;2.97;;;;;;;;;;5015779;28;20186;-67
2022/08/10 01:31:49;;;;;;;4.20;3.03;;;;;;;;;;4987727;28;20218;-67
2022/08/10 01:34:19;;;;;;;6.57;3.00;;;;;;;;;;5015440;28;20172;-67
2022/08/10 01:36:49;;;;;;;6.37;3.13;;;;;;;;;;5013989;28;20180;-67
2022/08/10 01:39:19;;;;;;;6.63;2.97;;;;;;;;;;5014075;28;20559;-67
2022/08/10 01:41:48;;;;;;;6.83;3.03;;;;;;;;;;5015270;28;20258;-67
2022/08/10 01:44:16;;;;;;;6.27;3.37;;;;;;;;;;5015247;28;20268;-67
2022/08/10 01:46:44;;;;;;;5.73;3.00;;;;;;;;;;5013678;28;20184;-67
2022/08/10 01:49:11;;;;;;;3.93;2.90;;;;;;;;;;5015538;28;20182;-67
2022/08/10 01:51:43;;;;;;;4.00;2.70;;;;;;;;;;5014991;28;20200;-68
2022/08/10 01:54:10;;;;;;;3.43;2.60;;;;;;;;;;5015319;28;20180;-67
2022/08/10 01:56:38;;;;;;;3.73;2.80;;;;;;;;;;5013461;28;20648;-67
2022/08/10 01:59:10;;;;;;;5.20;2.80;;;;;;;;;;5014117;28;20210;-67
2022/08/10 02:01:41;;;;;;;4.27;2.50;;;;;;;;;;5013607;28;20180;-65
2022/08/10 02:04:09;;;;;;;5.17;2.90;;;;;;;;;;5014921;28;20180;-67
2022/08/10 02:06:39;;;;;;;3.97;2.80;;;;;;;;;;5015113;28;20186;-67
2022/08/10 02:09:06;;;;;;;5.33;2.90;;;;;;;;;;5013356;28;20180;-67
2022/08/10 02:11:32;;;;;;;4.40;3.10;;;;;;;;;;5014595;28;20208;-67
2022/08/10 02:13:58;;;;;;;6.93;2.97;;;;;;;;;;5014810;28;20191;-67
2022/08/10 02:16:26;;;;;;;4.27;2.80;;;;;;;;;;5014658;28;20187;-67
2022/08/10 02:18:53;;;;;;;3.57;2.90;;;;;;;;;;5014480;28;20334;-67
2022/08/10 02:21:20;;;;;;;5.50;3.67;;;;;;;;;;5013065;28;20188;-67
2022/08/10 02:23:46;;;;;;;4.47;3.30;;;;;;;;;;5014857;28;20590;-67
2022/08/10 02:26:12;;;;;;;4.73;2.90;;;;;;;;;;5014544;28;20636;-70
2022/08/10 02:28:39;;;;;;;3.80;2.93;;;;;;;;;;5014408;28;20195;-67
2022/08/10 02:31:05;;;;;;;5.67;2.80;;;;;;;;;;5014350;28;20254;-67
2022/08/10 02:33:32;;;;;;;3.83;3.20;;;;;;;;;;5014461;28;20214;-67
2022/08/10 02:36:00;;;;;;;4.03;3.27;;;;;;;;;;5014164;28;20176;-67
2022/08/10 02:38:34;;;;;;;8.43;3.30;;;;;;;;;;5012859;28;20199;-67
2022/08/10 02:41:03;;;;;;;5.37;3.17;;;;;;;;;;5013095;28;20189;-67
2022/08/10 02:43:33;;;;;;;3.47;3.10;;;;;;;;;;5013008;28;20175;-67
2022/08/10 02:46:03;;;;;;;4.20;3.73;;;;;;;;;;5014328;28;20314;-67
2022/08/10 02:48:41;;;;;;;5.10;4.13;;;;;;;;;;5013904;28;20219;-67
2022/08/10 02:51:10;;;;;;;4.40;3.90;;;;;;;;;;5012546;28;20222;-67
2022/08/10 02:53:46;;;;;;;8.33;4.10;;;;;;;;;;5014599;28;20516;-67
2022/08/10 02:56:25;;;;;;;6.83;3.53;;;;;;;;;;5012795;28;20183;-67
2022/08/10 02:59:01;;;;;;;6.83;4.00;;;;;;;;;;5013771;28;20227;-67
2022/08/10 03:01:31;;;;;;;6.27;3.60;;;;;;;;;;5012489;28;20186;-67
2022/08/10 03:04:03;;;;;;;4.33;3.60;;;;;;;;;;5014454;28;20172;-67
2022/08/10 03:06:33;;;;;;;3.60;3.30;;;;;;;;;;5013702;28;20175;-67
2022/08/10 03:09:01;;;;;;;6.47;3.70;;;;;;;;;;5014469;28;20183;-67
2022/08/10 03:11:28;;;;;;;6.27;4.20;;;;;;;;;;5013827;28;20699;-67
2022/08/10 03:13:55;;;;;;;7.20;3.97;;;;;;;;;;5013996;28;20171;-67
2022/08/10 03:16:22;;;;;;;4.33;3.33;;;;;;;;;;5013980;28;20187;-67
2022/08/10 03:18:48;;;;;;;7.87;3.47;;;;;;;;;;5013871;28;20199;-67
2022/08/10 03:21:16;;;;;;;4.07;3.17;;;;;;;;;;5013628;28;20183;-68
2022/08/10 03:23:43;;;;;;;4.43;3.77;;;;;;;;;;5012386;28;20184;-67
2022/08/10 03:26:10;;;;;;;6.37;3.60;;;;;;;;;;5014118;28;20179;-67
2022/08/10 03:28:36;;;;;;;6.23;3.53;;;;;;;;;;5012312;28;20286;-64
2022/08/10 03:31:03;;;;;;;5.87;3.83;;;;;;;;;;5013641;28;20214;-67
2022/08/10 03:33:31;;;;;;;4.53;4.13;;;;;;;;;;5014077;28;20636;-67
2022/08/10 03:35:57;;;;;;;4.47;3.50;;;;;;;;;;5012339;28;20219;-67
2022/08/10 03:38:23;;;;;;;5.83;3.23;;;;;;;;;;5013600;28;20203;-67
2022/08/10 03:40:49;;;;;;;5.03;3.60;;;;;;;;;;5013578;28;20180;-67
2022/08/10 03:43:17;;;;;;;5.00;3.83;;;;;;;;;;5012220;28;20279;-67
2022/08/10 03:45:44;;;;;;;4.00;3.50;;;;;;;;;;5013902;28;20180;-67
2022/08/10 03:48:10;;;;;;;5.83;3.70;;;;;;;;;;5013387;28;20220;-67
2022/08/10 03:50:36;;;;;;;3.87;3.43;;;;;;;;;;5013594;28;20176;-67
2022/08/10 03:53:02;;;;;;;4.90;4.07;;;;;;;;;;5012051;28;20212;-67
2022/08/10 03:55:29;;;;;;;6.63;4.35;;;;;;;;;;5012523;28;20385;-67
2022/08/10 03:57:55;;;;;;;3.77;3.47;;;;;;;;;;5013650;28;20199;-67
2022/08/10 04:00:21;;;;;;;4.20;3.80;;;;;;;;;;5012287;28;20178;-67
2022/08/10 04:02:47;;;;;;;5.20;3.63;;;;;;;;;;5012668;28;20184;-67
2022/08/10 04:05:14;;;;;;;6.17;3.83;;;;;;;;;;5013770;28;20183;-68
2022/08/10 04:07:41;;;;;;;4.80;4.27;;;;;;;;;;5011971;28;20207;-68
2022/08/10 04:10:07;;;;;;;5.60;3.60;;;;;;;;;;5011955;28;20184;-68
2022/08/10 04:12:33;;;;;;;5.37;4.50;;;;;;;;;;5037031;22;20263;-71
2022/08/10 04:14:59;;;;;;;4.83;3.97;;;;;;;;;;5013540;28;20184;-71
2022/08/10 04:17:25;;;;;;;5.23;4.10;;;;;;;;;;5012221;28;20186;-71
2022/08/10 04:19:52;;;;;;;5.33;4.17;;;;;;;;;;5011910;28;20755;-72
2022/08/10 04:22:20;;;;;;;4.97;4.20;;;;;;;;;;5014150;28;20286;-71
2022/08/10 04:24:47;;;;;;;4.17;3.77;;;;;;;;;;5015808;28;20266;-71
2022/08/10 04:27:13;;;;;;;8.23;4.83;;;;;;;;;;5015631;28;20543;-71
2022/08/10 04:29:40;;;;;;;5.33;4.60;;;;;;;;;;5015547;28;20183;-71
2022/08/10 04:32:07;;;;;;;4.80;4.30;;;;;;;;;;5016580;28;20238;-71
2022/08/10 04:34:35;;;;;;;7.50;4.70;;;;;;;;;;5016944;28;20184;-71
2022/08/10 04:37:03;;;;;;;5.67;4.50;;;;;;;;;;5016948;28;20254;-71
2022/08/10 04:39:29;;;;;;;9.30;4.50;;;;;;;;;;5015382;28;20180;-71
2022/08/10 04:41:56;;;;;;;5.43;4.50;;;;;;;;;;5016657;28;20750;-71
2022/08/10 04:44:22;;;;;;;7.10;4.30;;;;;;;;;;5016316;28;20208;-71
2022/08/10 04:46:48;;;;;;;5.23;4.30;;;;;;;;;;5016188;28;20553;-72
2022/08/10 04:49:14;;;;;;;5.93;4.73;;;;;;;;;;5015128;28;20180;-71
2022/08/10 04:51:40;;;;;;;5.80;4.67;;;;;;;;;;5016021;28;20711;-72
2022/08/10 04:54:06;;;;;;;6.10;4.80;;;;;;;;;;5016285;28;20624;-71
2022/08/10 04:56:32;;;;;;;5.83;4.50;;;;;;;;;;5016051;28;20184;-71
2022/08/10 04:58:59;;;;;;;7.37;4.80;;;;;;;;;;5014956;28;20188;-72
2022/08/10 05:01:25;;;;;;;10.47;4.80;;;;;;;;;;5016297;28;20235;-71
2022/08/10 05:03:51;;;;;;;5.30;4.80;;;;;;;;;;5016483;28;20230;-72
2022/08/10 05:06:17;;;;;;;8.43;4.87;;;;;;;;;;5015920;28;20188;-71
2022/08/10 05:08:43;;;;;;;7.13;4.77;;;;;;;;;;5015924;28;20191;-71
2022/08/10 05:11:09;;;;;;;6.77;5.03;;;;;;;;;;5015753;28;20183;-72
2022/08/10 05:13:35;;;;;;;9.67;5.00;;;;;;;;;;5015840;28;20249;-71
2022/08/10 05:16:00;;;;;;;11.27;5.50;;;;;;;;;;5016197;28;20171;-71
2022/08/10 05:18:26;;;;;;;5.50;4.90;;;;;;;;;;5015387;28;20710;-71
2022/08/10 05:20:52;;;;;;;6.27;5.07;;;;;;;;;;5016542;28;20179;-71
2022/08/10 05:23:18;;;;;;;11.20;5.23;;;;;;;;;;5014824;28;20212;-71
2022/08/10 05:25:44;;;;;;;7.47;5.30;;;;;;;;;;5016385;28;20184;-71
2022/08/10 05:28:10;;;;;;;11.73;5.20;;;;;;;;;;5014804;28;20188;-71
2022/08/10 05:30:36;;;;;;;6.60;4.80;;;;;;;;;;5016377;28;20219;-71
2022/08/10 05:33:02;;;;;;;8.30;4.50;;;;;;;;;;5014157;28;20207;-71
2022/08/10 05:35:29;;;;;;;10.77;5.30;;;;;;;;;;5014852;28;20263;-72
2022/08/10 05:37:55;;;;;;;6.00;5.00;;;;;;;;;;5017935;28;20651;-72
2022/08/10 05:40:22;;;;;;;5.60;5.07;;;;;;;;;;5023602;28;20180;-71
2022/08/10 05:42:49;;;;;;;7.57;4.83;;;;;;;;;;5027374;28;20207;-71
2022/08/10 05:45:23;;;;;;;8.20;4.87;;;;;;;;;;5024640;28;20184;-71
2022/08/10 05:47:50;;;;;;;7.47;5.20;;;;;;;;;;5021448;28;20647;-71
2022/08/10 05:50:16;;;;;;;7.47;4.80;;;;;;;;;;5014757;28;20210;-71
2022/08/10 05:52:42;;;;;;;6.20;5.20;;;;;;;;;;5015140;28;20702;-72
2022/08/10 05:55:08;;;;;;;13.07;5.20;;;;;;;;;;5015164;28;20226;-72
2022/08/10 05:57:35;;;;;;;7.43;4.73;;;;;;;;;;5013521;28;20184;-72
2022/08/10 06:00:04;;;;;;;10.93;5.83;;;;;;;;;;5014581;28;20180;-72
2022/08/10 06:02:32;;;;;;;7.20;5.27;;;;;;;;;;5014410;28;20274;-72
2022/08/10 06:05:04;;;;;;;11.33;5.70;;;;;;;;;;5013244;28;20242;-70
2022/08/10 06:07:30;;;;;;;8.80;5.40;;;;;;;;;;5014497;28;20652;-72
2022/08/10 06:09:57;;;;;;;10.73;6.07;;;;;;;;;;5013148;28;20599;-72
2022/08/10 06:12:26;;;;;;;9.63;5.13;;;;;;;;;;5014194;28;20691;-72
2022/08/10 06:14:59;;;;;;;8.67;4.87;;;;;;;;;;5014141;28;20183;-73
2022/08/10 06:17:25;;;;;;;7.43;4.67;;;;;;;;;;5014467;28;20529;-72
2022/08/10 06:19:52;;;;;;;5.73;4.73;;;;;;;;;;5014382;28;20188;-73
2022/08/10 06:22:18;;;;;;;9.33;5.00;;;;;;;;;;5014282;28;20616;-70
2022/08/10 06:24:44;;;;;;;8.13;5.10;;;;;;;;;;5014445;28;20179;-72
2022/08/10 06:27:10;;;;;;;9.33;5.07;;;;;;;;;;5014204;28;20621;-72
2022/08/10 06:29:39;;;;;;;7.67;5.33;;;;;;;;;;5014029;28;20259;-72
2022/08/10 06:32:06;;;;;;;10.37;4.80;;;;;;;;;;5013285;28;20211;-72
2022/08/10 06:34:35;;;;;;;6.70;4.60;;;;;;;;;;5014468;28;20171;-72
2022/08/10 06:37:02;;;;;;;7.13;4.60;;;;;;;;;;5014284;28;20249;-71
2022/08/10 06:39:28;;;;;;;10.13;5.03;;;;;;;;;;5013805;28;20176;-72
2022/08/10 06:41:58;;;;;;;6.50;4.97;;;;;;;;;;5013963;28;20342;-72
2022/08/10 06:44:26;;;;;;;8.27;4.70;;;;;;;;;;5012218;28;20553;-72
2022/08/10 06:46:53;;;;;;;8.20;4.70;;;;;;;;;;5013632;28;20187;-72
2022/08/10 06:49:21;;;;;;;6.90;4.57;;;;;;;;;;5014037;28;20187;-72
2022/08/10 06:51:49;;;;;;;11.27;4.77;;;;;;;;;;5013525;28;20208;-71
2022/08/10 06:54:17;;;;;;;10.93;5.50;;;;;;;;;;5013502;28;20251;-72
2022/08/10 06:56:44;;;;;;;10.70;5.17;;;;;;;;;;5012343;28;20179;-72
2022/08/10 06:59:30;;;;;;;8.23;4.50;;;;;;;;;;5012275;28;20186;-71
2022/08/10 07:02:01;;;;;;;10.67;4.63;;;;;;;;;;5013293;28;20208;-71
2022/08/10 07:04:30;;;;;;;12.13;4.70;;;;;;;;;;5012291;28;20179;-72
2022/08/10 07:06:57;;;;;;;14.17;5.67;;;;;;;;;;5013446;28;20184;-72
2022/08/10 07:09:24;;;;;;;7.70;4.60;;;;;;;;;;5012128;28;20183;-71
2022/08/10 07:11:50;;;;;;;10.20;4.53;;;;;;;;;;5013403;28;20235;-72
2022/08/10 07:14:17;;;;;;;9.43;4.40;;;;;;;;;;5012014;28;20259;-71
2022/08/10 07:16:44;;;;;;;8.20;4.70;;;;;;;;;;5013268;28;20619;-71
2022/08/10 07:19:10;;;;;;;10.17;4.13;;;;;;;;;;5013654;28;20179;-71
2022/08/10 07:21:38;;;;;;;5.50;4.20;;;;;;;;;;5013257;28;20333;-71
2022/08/10 07:24:06;;;;;;;6.10;4.13;;;;;;;;;;5013290;28;20176;-71
2022/08/10 07:26:33;;;;;;;7.83;4.47;;;;;;;;;;5013278;28;20179;-71
2022/08/10 07:28:59;;;;;;;9.57;5.50;;;;;;;;;;5013064;28;20184;-71
2022/08/10 07:31:25;;;;;;;7.47;4.90;;;;;;;;;;5013126;28;20624;-71
2022/08/10 07:33:53;;;;;;;14.30;4.63;;;;;;;;;;5013664;28;20524;-72
2022/08/10 07:36:20;;;;;;;10.23;5.17;;;;;;;;;;5013251;28;20200;-71
2022/08/10 07:38:48;;;;;;;9.33;4.87;;;;;;;;;;5013571;28;20179;-71
2022/08/10 07:41:15;;;;;;;12.70;4.90;;;;;;;;;;5013071;28;20211;-72
2022/08/10 07:43:41;;;;;;;8.17;4.40;;;;;;;;;;5011860;28;20190;-72
2022/08/10 07:46:11;;;;;;;11.73;4.60;;;;;;;;;;5013439;28;20539;-72
2022/08/10 07:48:41;;;;;;;6.97;4.17;;;;;;;;;;5011664;28;20176;-72
2022/08/10 07:51:08;;;;;;;8.90;3.93;;;;;;;;;;5011907;28;20546;-72
2022/08/10 07:53:38;;;;;;;5.27;3.60;;;;;;;;;;5011735;28;20700;-72
2022/08/10 07:56:06;;;;;;;6.40;3.83;;;;;;;;;;5013578;28;20207;-72
2022/08/10 07:58:35;;;;;;;5.37;3.87;;;;;;;;;;5016120;28;20176;-73
2022/08/10 08:01:01;;;;;;;9.07;3.53;;;;;;;;;;5016815;28;20237;-73
2022/08/10 08:03:28;;;;;;;6.73;3.73;;;;;;;;;;5015342;28;20176;-72
2022/08/10 08:05:58;;;;;;;9.60;3.73;;;;;;;;;;5015268;28;20215;-72
2022/08/10 08:08:26;;;;;;;6.97;3.90;;;;;;;;;;5016850;28;20628;-72
2022/08/10 08:10:53;;;;;;;8.97;3.93;;;;;;;;;;5016523;28;20198;-73
2022/08/10 08:13:20;;;;;;;10.47;3.97;;;;;;;;;;5016355;28;20215;-71
2022/08/10 08:15:46;;;;;;;6.30;3.80;;;;;;;;;;5016542;28;20176;-72
2022/08/10 08:18:13;;;;;;;9.23;4.13;;;;;;;;;;5015035;28;20184;-72
2022/08/10 08:20:40;;;;;;;7.20;3.70;;;;;;;;;;5016600;28;20633;-72
2022/08/10 08:23:06;;;;;;;6.80;4.07;;;;;;;;;;5016138;28;20200;-73
2022/08/10 08:25:33;;;;;;;6.27;3.50;;;;;;;;;;5014899;28;20187;-72
2022/08/10 08:28:00;;;;;;;10.37;3.77;;;;;;;;;;5014894;28;20245;-72
2022/08/10 08:30:27;;;;;;;7.17;3.80;;;;;;;;;;5014815;28;20697;-72
2022/08/10 08:32:53;;;;;;;9.67;3.90;;;;;;;;;;5015991;28;20234;-72
2022/08/10 08:35:19;;;;;;;7.03;3.40;;;;;;;;;;5016335;28;20201;-72
2022/08/10 08:37:46;;;;;;;4.90;3.50;;;;;;;;;;5016457;28;20171;-71
2022/08/10 08:40:18;;;;;;;5.53;4.37;;;;;;;;;;5014790;28;20275;-72
2022/08/10 08:42:51;;;;;;;7.50;3.60;;;;;;;;;;5014561;28;20647;-71
2022/08/10 08:45:21;;;;;;;6.23;3.90;;;;;;;;;;5016299;28;20254;-71
2022/08/10 08:48:05;;;;;;;5.73;3.70;;;;;;;;;;5016236;28;20255;-72
2022/08/10 08:50:50;;;;;;;6.23;3.70;;;;;;;;;;5016108;28;20156;-72
2022/08/10 08:53:16;;;;;;;7.37;4.23;;;;;;;;;;5015565;28;20207;-71
2022/08/10 08:55:45;;;;;;;7.40;3.70;;;;;;;;;;5015794;28;20176;-71
2022/08/10 08:58:11;;;;;;;12.07;3.70;;;;;;;;;;5014412;28;20180;-71
2022/08/10 09:00:43;;;;;;;6.53;3.80;;;;;;;;;;5015648;28;20625;-71
2022/08/10 09:03:24;;;;;;;6.63;4.07;;;;;;;;;;5015431;28;20207;-71
2022/08/10 09:06:05;;;;;;;4.13;3.33;;;;;;;;;;5015419;28;20179;-71
2022/08/10 09:08:50;;;;;;;5.87;3.30;;;;;;;;;;5013927;28;20244;-70
2022/08/10 09:11:19;;;;;;;6.47;3.87;;;;;;;;;;5015082;28;20226;-71
2022/08/10 09:13:52;;;;;;;4.77;3.20;;;;;;;;;;5013939;28;20165;-71
2022/08/10 09:16:18;;;;;;;4.50;3.23;;;;;;;;;;5014054;28;20183;-71
2022/08/10 09:19:02;;;;;;;9.43;3.90;;;;;;;;;;5015717;28;20570;-71
2022/08/10 09:21:47;;;;;;;5.03;3.70;;;;;;;;;;5013904;28;20672;-71
2022/08/10 09:24:29;;;;;;;5.97;3.60;;;;;;;;;;5015227;28;20230;-71
2022/08/10 09:26:56;;;;;;;6.43;3.70;;;;;;;;;;5013916;28;20175;-72
2022/08/10 09:29:22;;;;;;;9.07;3.67;;;;;;;;;;5015566;28;20180;-71
2022/08/10 09:31:53;;;;;;;7.57;3.50;;;;;;;;;;5015457;28;20660;-71
2022/08/10 09:34:37;;;;;;;6.97;3.80;;;;;;;;;;5015407;28;20517;-71
2022/08/10 09:37:22;;;;;;;5.40;3.37;;;;;;;;;;5015130;28;20621;-71
2022/08/10 09:39:53;;;;;;;9.43;4.83;;;;;;;;;;5015119;28;20202;-71
2022/08/10 09:42:35;;;;;;;6.87;4.17;;;;;;;;;;5014821;28;20199;-71
2022/08/10 09:45:03;;;;;;;6.63;4.10;;;;;;;;;;5015013;28;20190;-71
2022/08/10 09:47:40;;;;;;;3.33;2.90;;;;;;;;;;5013537;28;20191;-70
2022/08/10 09:50:24;;;;;;;3.80;3.30;;;;;;;;;;5013245;28;20182;-70
2022/08/10 09:52:57;;;;;;;4.77;3.43;;;;;;;;;;5014384;28;20211;-71
2022/08/10 09:55:32;;;;;;;10.60;4.13;;;;;;;;;;5013182;28;20645;-70
2022/08/10 09:58:17;;;;;;;7.10;3.80;;;;;;;;;;5014492;28;20171;-70
2022/08/10 10:00:48;;;;;;;3.87;3.47;;;;;;;;;;5014937;28;20234;-70
2022/08/10 10:03:19;;;;;;;5.93;3.50;;;;;;;;;;5014615;28;20203;-70
2022/08/10 10:06:04;;;;;;;4.63;3.40;;;;;;;;;;5014970;28;20178;-70
2022/08/10 10:08:39;;;;;;;7.03;3.73;;;;;;;;;;5014538;28;20175;-70
2022/08/10 10:11:16;;;;;;;7.60;3.53;;;;;;;;;;5014406;28;20191;-69
2022/08/10 10:13:45;;;;;;;4.57;3.67;;;;;;;;;;5014791;28;20171;-70
2022/08/10 10:16:22;;;;;;;3.67;3.33;;;;;;;;;;5013134;28;20176;-70
2022/08/10 10:19:11;;;;;;;3.67;3.37;;;;;;;;;;5014575;28;20168;-70
2022/08/10 10:21:58;;;;;;;4.20;3.10;;;;;;;;;;5011020;28;20290;-70
2022/08/10 10:24:29;;;;;;;3.63;3.10;;;;;;;;;;5014399;28;20175;-70
2022/08/10 10:26:58;;;;;;;4.17;3.50;;;;;;;;;;5038556;23;20637;-67
2022/08/10 10:29:43;;;;;;;4.10;3.17;;;;;;;;;;5032252;28;20202;-68
2022/08/10 10:32:18;;;;;;;7.57;4.53;;;;;;;;;;5033942;28;20257;-68
2022/08/10 10:35:02;;;;;;;6.60;3.73;;;;;;;;;;5033481;28;20321;-68
2022/08/10 10:37:29;;;;;;;9.10;3.87;;;;;;;;;;5032243;28;20294;-67
2022/08/10 10:39:56;;;;;;;7.43;3.63;;;;;;;;;;5033670;28;20183;-67
2022/08/10 10:42:29;;;;;;;7.10;3.70;;;;;;;;;;5032082;28;20187;-67
2022/08/10 10:44:57;;;;;;;6.23;3.93;;;;;;;;;;5033152;28;20175;-66
2022/08/10 10:47:45;;;;;;;8.17;3.87;;;;;;;;;;5031884;28;20207;-67
2022/08/10 10:50:26;;;;;;;5.30;3.37;;;;;;;;;;5033465;28;20175;-67
2022/08/10 10:53:21;;;;;;;3.60;3.30;;;;;;;;;;5033364;28;20206;-67
2022/08/10 10:56:02;;;;;;;4.73;3.50;;;;;;;;;;5020666;28;20209;-68
2022/08/10 10:58:38;;;;;;;3.73;3.37;;;;;;;;;;5033346;28;20201;-67
2022/08/10 11:01:07;;;;;;;6.83;4.17;;;;;;;;;;5032489;28;20171;-67
2022/08/10 11:03:39;;;;;;;3.63;3.33;;;;;;;;;;5033154;28;20179;-67
2022/08/10 11:06:05;;;;;;;8.27;4.43;;;;;;;;;;5033244;28;20180;-67
2022/08/10 11:08:35;;;;;;;5.93;3.67;;;;;;;;;;5033171;28;20285;-67
2022/08/10 11:11:04;;;;;;;4.20;3.57;;;;;;;;;;5033556;28;20258;-67
2022/08/10 11:13:49;;;;;;;4.70;3.40;;;;;;;;;;5031596;28;20241;-68
2022/08/10 11:16:17;;;;;;;5.10;3.40;;;;;;;;;;5032956;28;20177;-68
2022/08/10 11:18:48;;;;;;;6.93;3.73;;;;;;;;;;5032893;28;20237;-67
2022/08/10 11:21:36;;;;;;;5.47;3.60;;;;;;;;;;5033116;28;20167;-68
2022/08/10 11:24:06;;;;;;;4.90;3.50;;;;;;;;;;5032964;28;20159;-67
2022/08/10 11:26:49;;;;;;;4.67;3.20;;;;;;;;;;5031564;28;20214;-67
2022/08/10 11:29:23;;;;;;;8.37;3.80;;;;;;;;;;5031537;28;20227;-67
2022/08/10 11:32:10;;;;;;;6.20;3.30;;;;;;;;;;5035304;28;20643;-67
2022/08/10 11:34:46;;;;;;;4.27;3.33;;;;;;;;;;5035552;28;20179;-67
2022/08/10 11:37:21;;;;;;;7.33;3.43;;;;;;;;;;5037150;28;20733;-68
2022/08/10 11:40:02;;;;;;;3.80;3.10;;;;;;;;;;5036982;28;20174;-68
2022/08/10 11:42:47;;;;;;;3.63;3.33;;;;;;;;;;5037008;28;20225;-68
2022/08/10 11:45:19;;;;;;;4.20;3.43;;;;;;;;;;5036825;28;20190;-68
2022/08/10 11:47:52;;;;;;;4.60;3.90;;;;;;;;;;5036832;28;20569;-68
2022/08/10 11:50:37;;;;;;;3.80;3.40;;;;;;;;;;5036789;28;20179;-68
2022/08/10 11:53:17;;;;;;;4.60;3.73;;;;;;;;;;5036646;28;20622;-68
2022/08/10 11:55:51;;;;;;;5.17;3.93;;;;;;;;;;5036789;28;20202;-68
2022/08/10 12:01:06;;;;;;;5.07;3.20;;;;;;;;;;5036513;28;20225;-69
2022/08/10 12:03:33;;;;;;;7.13;3.57;;;;;;;;;;5036462;28;20258;-68
2022/08/10 12:06:00;;;;;;;3.63;3.07;;;;;;;;;;5035469;28;20528;-68
2022/08/10 12:08:27;;;;;;;5.37;3.43;;;;;;;;;;5036477;28;20261;-67
2022/08/10 12:10:53;;;;;;;3.63;3.33;;;;;;;;;;5036400;28;20183;-68
2022/08/10 12:13:30;;;;;;;4.10;3.23;;;;;;;;;;5036458;28;20233;-68
2022/08/10 12:16:11;;;;;;;4.50;3.13;;;;;;;;;;5036527;28;20197;-68
2022/08/10 12:18:45;;;;;;;3.50;3.20;;;;;;;;;;5036334;28;20667;-68
2022/08/10 12:21:15;;;;;;;4.33;3.53;;;;;;;;;;5036452;28;20225;-68
2022/08/10 12:23:54;;;;;;;4.63;3.50;;;;;;;;;;5034823;28;20179;-68
2022/08/10 12:26:28;;;;;;;3.73;3.37;;;;;;;;;;5034955;28;20598;-68
2022/08/10 12:29:01;;;;;;;3.70;3.30;;;;;;;;;;5034578;28;20225;-67
2022/08/10 12:31:30;;;;;;;5.67;3.00;;;;;;;;;;5036088;28;20182;-67
2022/08/10 12:34:13;;;;;;;3.20;2.63;;;;;;;;;;5035792;28;20245;-69
2022/08/10 12:36:44;;;;;;;3.40;3.10;;;;;;;;;;5035861;28;20174;-67
2022/08/10 12:39:15;;;;;;;5.50;3.53;;;;;;;;;;5034389;28;20203;-67
2022/08/10 12:41:44;;;;;;;4.20;3.53;;;;;;;;;;5035733;28;20195;-67
2022/08/10 12:44:29;;;;;;;3.93;2.80;;;;;;;;;;5035107;28;20215;-67
2022/08/10 12:46:55;;;;;;;7.47;2.80;;;;;;;;;;5035656;28;20190;-66
2022/08/10 12:49:27;;;;;;;3.03;2.73;;;;;;;;;;5035862;28;20179;-67
2022/08/10 12:51:58;;;;;;;3.23;2.93;;;;;;;;;;5035644;28;20191;-67
2022/08/10 12:54:25;;;;;;;4.43;3.20;;;;;;;;;;5035784;28;20242;-68
2022/08/10 12:56:56;;;;;;;4.57;3.00;;;;;;;;;;5034012;28;20788;-67
2022/08/10 12:59:26;;;;;;;3.93;3.33;;;;;;;;;;5034316;28;20212;-67
2022/08/10 13:01:53;;;;;;;6.20;3.07;;;;;;;;;;5035850;28;20520;-67
2022/08/10 13:04:25;;;;;;;4.78;3.08;;;;;;;;;;5035348;28;20179;-67
2022/08/10 13:06:51;;;;;;;3.73;2.80;;;;;;;;;;5033897;28;20201;-66
2022/08/10 13:09:23;;;;;;;3.67;3.30;;;;;;;;;;5033757;28;20666;-68
2022/08/10 13:11:59;;;;;;;3.27;2.97;;;;;;;;;;5035139;28;20579;-67
2022/08/10 13:14:34;;;;;;;3.20;2.90;;;;;;;;;;5035083;28;20175;-67
2022/08/10 13:17:01;;;;;;;3.83;2.93;;;;;;;;;;5033769;28;20209;-67
2022/08/10 13:19:28;;;;;;;3.83;2.93;;;;;;;;;;5035188;28;20229;-67
2022/08/10 13:21:55;;;;;;;3.42;2.83;;;;;;;;;;5034998;28;20654;-68
2022/08/10 13:24:28;;;;;;;4.10;2.80;;;;;;;;;;5036479;28;20187;-67
2022/08/10 13:27:00;;;;;;;3.17;2.83;;;;;;;;;;5035040;28;20567;-67
2022/08/10 13:29:27;;;;;;;4.80;2.70;;;;;;;;;;5035029;28;20180;-68
2022/08/10 13:31:54;;;;;;;4.07;2.60;;;;;;;;;;5034944;28;20256;-66
2022/08/10 13:34:21;;;;;;;3.03;2.28;;;;;;;;;;5034799;28;20242;-67
2022/08/10 13:37:08;;;;;;;4.27;2.60;;;;;;;;;;5033414;28;20189;-67
2022/08/10 13:39:45;;;;;;;2.50;2.30;;;;;;;;;;5034961;28;20174;-66
2022/08/10 13:42:12;;;;;;;2.60;2.40;;;;;;;;;;5034562;28;20179;-67
2022/08/10 13:44:40;;;;;;;4.30;2.70;;;;;;;;;;5033527;28;20232;-66
2022/08/10 13:47:07;;;;;;;3.00;2.47;;;;;;;;;;5034749;28;20183;-67
2022/08/10 13:49:43;;;;;;;6.07;2.40;;;;;;;;;;5033196;28;20190;-67
2022/08/10 13:52:15;;;;;;;17.75;3.00;;;;;;;;;;5034163;28;20199;-67
2022/08/10 13:54:41;;;;;;;3.13;2.38;;;;;;;;;;5033573;28;20186;-67
2022/08/10 13:57:08;;;;;;;4.80;2.78;;;;;;;;;;5032819;28;20261;-67
2022/08/10 13:59:35;;;;;;;6.30;3.20;;;;;;;;;;5034252;28;20182;-67
2022/08/10 14:02:02;;;;;;;3.95;2.70;;;;;;;;;;5032968;28;20175;-67
2022/08/10 14:04:28;;;;;;;5.25;2.67;;;;;;;;;;5034123;28;20248;-65
2022/08/10 14:06:56;;;;;;;2.83;2.60;;;;;;;;;;5034224;28;20557;-67
2022/08/10 14:09:30;;;;;;;4.22;2.75;;;;;;;;;;5034487;28;20175;-67
2022/08/10 14:11:57;;;;;;;3.00;2.60;;;;;;;;;;5034147;28;20675;-67
2022/08/10 14:14:24;;;;;;;5.32;2.53;;;;;;;;;;5034222;28;20182;-67
2022/08/10 14:16:50;;;;;;;3.15;2.53;;;;;;;;;;5034122;28;20702;-65
2022/08/10 14:19:19;;;;;;;3.15;2.50;;;;;;;;;;5033889;28;20199;-67
2022/08/10 14:21:45;;;;;;;3.60;2.67;;;;;;;;;;5033884;28;20186;-67
2022/08/10 14:24:24;;;;;;;4.03;2.78;;;;;;;;;;5034493;28;20176;-67
2022/08/10 14:26:56;;;;;;;5.05;2.97;;;;;;;;;;5033818;28;20207;-67
2022/08/10 14:29:23;;;;;;;3.10;2.80;;;;;;;;;;5032328;28;20294;-69
2022/08/10 14:31:49;;;;;;;3.50;2.83;;;;;;;;;;5033939;28;20199;-68
2022/08/10 14:34:16;;;;;;;3.08;2.78;;;;;;;;;;5034314;28;20179;-67
2022/08/10 14:36:45;;;;;;;2.92;2.67;;;;;;;;;;5033677;28;20249;-68
2022/08/10 14:39:19;;;;;;;4.43;2.65;;;;;;;;;;5032486;28;20226;-69
2022/08/10 14:41:45;;;;;;;3.20;2.70;;;;;;;;;;5032770;28;20182;-68
2022/08/10 14:44:12;;;;;;;2.53;2.33;;;;;;;;;;5036750;28;20187;-67
2022/08/10 14:46:43;;;;;;;2.47;2.20;;;;;;;;;;5033577;28;20186;-67
2022/08/10 14:49:10;;;;;;;3.75;2.30;;;;;;;;;;5033442;28;20345;-67
2022/08/10 14:51:40;;;;;;;4.03;2.50;;;;;;;;;;5033427;28;20202;-67
2022/08/10 14:54:09;;;;;;;4.40;2.70;;;;;;;;;;5033424;28;20176;-67
2022/08/10 14:56:36;;;;;;;3.08;2.80;;;;;;;;;;5033816;28;20163;-67
2022/08/10 14:59:03;;;;;;;2.97;2.58;;;;;;;;;;5032047;28;20700;-67
2022/08/10 15:01:30;;;;;;;2.65;2.45;;;;;;;;;;5033672;28;20167;-67